Mc Ghee Tyson Airport
KTYS : now visible

Airfield :











YOU CAN JOIN US ON...

 
LOGIN :

Register | Disclaimer

   EN    FR    IT 

 









Legend :    VFR   Marginal VFR   IFR   Intensive IFR   Very Intensive IFR
Visi :
Ceiling :
>= 8 km
>= 3000ft
5 to 8 km
1000 to 3000 ft
1500m to 5 km
500 to 1000 ft
800 to 1500m
200 to 500 ft
< 800m
< 200 ft
Symbols :   Thunderstorms  Fog  Heavy snow  Heavy precipitations  Wind > 20 kt






- Airport Elevation : 981 ft
- IATA code : TYS


KTYS - Mc Ghee Tyson

CURRENT METAR :
  • 080553Z 00000KT 10SM SCT150 OVC250 08/02 A3022 RMK AO2 SLP231 T00780022 10144 20067 55006

EXPIRED METARs :
  • 080453Z 00000KT 10SM BKN150 OVC250 11/01 A3022 RMK AO2 SLP232 T01060011 402000006
  • 080353Z 00000KT 10SM FEW150 SCT250 12/02 A3023 RMK AO2 SLP237 T01170017

TAF KTYS
Valid from the 08 at 06:00 until the 09 at 06:00 UTC


080539Z 0806/0906 00000KT P6SM BKN150 OVC250
FM081100 VRB03KT P6SM FEW035 BKN060
FM081800 20004KT P6SM BKN060
KZTL FIR / North America



MET'MAP, your aeronautical weather chart ! - Copyright ORBIFLY December 2007 - Disclaimer

ORBIFLY MET'MAP TEAM :

Programming & Development : Alexandra Zaïnal
Original concept : Baudouin d'Aumeries
Technical & hardware support : Manuel Goepfert
Assistance : Marc-Olivier Méhu




SOURCES & CREDITS :

   NOAA       Earth
Advisory